sensor_id;sensor_type;location;lat;lon;timestamp;temperature;humidity
5808;DHT22;2930;42.678;23.312;2023-03-14T00:01:53;3.70;73.80
5808;DHT22;2930;42.678;23.312;2023-03-14T00:04:19;3.60;73.20
5808;DHT22;2930;42.678;23.312;2023-03-14T00:06:45;3.60;72.60
5808;DHT22;2930;42.678;23.312;2023-03-14T00:09:12;3.60;72.70
5808;DHT22;2930;42.678;23.312;2023-03-14T00:11:38;3.50;73.30
5808;DHT22;2930;42.678;23.312;2023-03-14T00:14:04;3.50;72.80
5808;DHT22;2930;42.678;23.312;2023-03-14T00:16:30;3.50;72.40
5808;DHT22;2930;42.678;23.312;2023-03-14T00:18:55;3.40;71.80
5808;DHT22;2930;42.678;23.312;2023-03-14T00:21:23;3.40;71.40
5808;DHT22;2930;42.678;23.312;2023-03-14T00:23:48;3.40;71.50
5808;DHT22;2930;42.678;23.312;2023-03-14T00:26:16;3.40;71.30
5808;DHT22;2930;42.678;23.312;2023-03-14T00:28:43;3.30;71.10
5808;DHT22;2930;42.678;23.312;2023-03-14T00:31:11;3.30;70.90
5808;DHT22;2930;42.678;23.312;2023-03-14T00:33:37;3.30;71.00
5808;DHT22;2930;42.678;23.312;2023-03-14T00:36:05;3.30;70.80
5808;DHT22;2930;42.678;23.312;2023-03-14T00:38:34;3.30;71.20
5808;DHT22;2930;42.678;23.312;2023-03-14T00:41:04;3.30;71.70
5808;DHT22;2930;42.678;23.312;2023-03-14T00:43:29;3.20;71.90
5808;DHT22;2930;42.678;23.312;2023-03-14T00:45:55;3.20;71.80
5808;DHT22;2930;42.678;23.312;2023-03-14T00:48:22;3.20;71.80
5808;DHT22;2930;42.678;23.312;2023-03-14T00:50:48;3.20;71.90
5808;DHT22;2930;42.678;23.312;2023-03-14T00:53:14;3.20;72.00
5808;DHT22;2930;42.678;23.312;2023-03-14T00:55:40;3.10;72.00
5808;DHT22;2930;42.678;23.312;2023-03-14T00:58:08;3.20;72.30
5808;DHT22;2930;42.678;23.312;2023-03-14T01:00:35;3.20;72.50
5808;DHT22;2930;42.678;23.312;2023-03-14T01:03:01;3.20;72.60
5808;DHT22;2930;42.678;23.312;2023-03-14T01:05:27;3.20;72.70
5808;DHT22;2930;42.678;23.312;2023-03-14T01:07:53;3.20;72.80
5808;DHT22;2930;42.678;23.312;2023-03-14T01:10:18;3.20;72.80
5808;DHT22;2930;42.678;23.312;2023-03-14T01:12:44;3.20;72.80
5808;DHT22;2930;42.678;23.312;2023-03-14T01:15:10;3.20;73.10
5808;DHT22;2930;42.678;23.312;2023-03-14T01:17:36;3.20;73.40
5808;DHT22;2930;42.678;23.312;2023-03-14T01:20:03;3.20;73.80
5808;DHT22;2930;42.678;23.312;2023-03-14T01:22:30;3.20;74.30
5808;DHT22;2930;42.678;23.312;2023-03-14T01:24:56;3.10;74.40
5808;DHT22;2930;42.678;23.312;2023-03-14T01:27:21;3.10;74.30
5808;DHT22;2930;42.678;23.312;2023-03-14T01:29:47;3.10;74.50
5808;DHT22;2930;42.678;23.312;2023-03-14T01:32:13;3.10;74.70
5808;DHT22;2930;42.678;23.312;2023-03-14T01:34:39;3.00;74.70
5808;DHT22;2930;42.678;23.312;2023-03-14T01:37:05;3.00;74.80
5808;DHT22;2930;42.678;23.312;2023-03-14T01:39:32;3.00;74.90
5808;DHT22;2930;42.678;23.312;2023-03-14T01:41:59;3.00;74.80
5808;DHT22;2930;42.678;23.312;2023-03-14T01:44:25;3.00;74.80
5808;DHT22;2930;42.678;23.312;2023-03-14T01:46:50;3.00;74.70
5808;DHT22;2930;42.678;23.312;2023-03-14T01:49:34;3.00;74.90
5808;DHT22;2930;42.678;23.312;2023-03-14T01:54:47;2.90;75.60
5808;DHT22;2930;42.678;23.312;2023-03-14T01:59:46;2.80;76.30
5808;DHT22;2930;42.678;23.312;2023-03-14T02:02:13;2.80;76.40
5808;DHT22;2930;42.678;23.312;2023-03-14T02:04:41;2.70;77.10
5808;DHT22;2930;42.678;23.312;2023-03-14T02:09:54;2.60;77.10
5808;DHT22;2930;42.678;23.312;2023-03-14T02:12:21;2.60;77.00
5808;DHT22;2930;42.678;23.312;2023-03-14T02:14:47;2.50;77.10
5808;DHT22;2930;42.678;23.312;2023-03-14T02:17:16;2.50;77.00
5808;DHT22;2930;42.678;23.312;2023-03-14T02:20:20;2.50;77.10
5808;DHT22;2930;42.678;23.312;2023-03-14T02:22:49;2.50;77.20
5808;DHT22;2930;42.678;23.312;2023-03-14T02:28:02;2.40;77.60
5808;DHT22;2930;42.678;23.312;2023-03-14T02:30:30;2.40;77.80
5808;DHT22;2930;42.678;23.312;2023-03-14T02:33:17;2.40;77.80
5808;DHT22;2930;42.678;23.312;2023-03-14T02:35:53;2.40;77.60
5808;DHT22;2930;42.678;23.312;2023-03-14T02:38:31;2.40;77.30
5808;DHT22;2930;42.678;23.312;2023-03-14T02:40:59;2.40;76.70
5808;DHT22;2930;42.678;23.312;2023-03-14T02:43:25;2.40;76.00
5808;DHT22;2930;42.678;23.312;2023-03-14T02:45:51;2.50;75.70
5808;DHT22;2930;42.678;23.312;2023-03-14T02:48:31;2.50;76.40
5808;DHT22;2930;42.678;23.312;2023-03-14T02:51:00;2.40;76.80
5808;DHT22;2930;42.678;23.312;2023-03-14T02:53:29;2.40;77.20
5808;DHT22;2930;42.678;23.312;2023-03-14T02:55:57;2.30;77.20
5808;DHT22;2930;42.678;23.312;2023-03-14T02:58:22;2.30;77.00
5808;DHT22;2930;42.678;23.312;2023-03-14T03:00:48;2.30;77.10
5808;DHT22;2930;42.678;23.312;2023-03-14T03:03:14;2.30;77.10
5808;DHT22;2930;42.678;23.312;2023-03-14T03:05:40;2.30;77.30
5808;DHT22;2930;42.678;23.312;2023-03-14T03:08:06;2.30;77.20
5808;DHT22;2930;42.678;23.312;2023-03-14T03:10:32;2.30;76.80
5808;DHT22;2930;42.678;23.312;2023-03-14T03:12:58;2.30;76.60
5808;DHT22;2930;42.678;23.312;2023-03-14T03:15:24;2.20;76.80
5808;DHT22;2930;42.678;23.312;2023-03-14T03:17:50;2.20;76.90
5808;DHT22;2930;42.678;23.312;2023-03-14T03:20:16;2.20;77.10
5808;DHT22;2930;42.678;23.312;2023-03-14T03:22:41;2.20;77.20
5808;DHT22;2930;42.678;23.312;2023-03-14T03:25:08;2.20;77.30
5808;DHT22;2930;42.678;23.312;2023-03-14T03:27:35;2.10;77.60
5808;DHT22;2930;42.678;23.312;2023-03-14T03:30:01;2.10;77.70
5808;DHT22;2930;42.678;23.312;2023-03-14T03:32:27;2.10;77.70
5808;DHT22;2930;42.678;23.312;2023-03-14T03:34:52;2.10;77.80
5808;DHT22;2930;42.678;23.312;2023-03-14T03:37:18;2.10;77.70
5808;DHT22;2930;42.678;23.312;2023-03-14T03:39:44;2.10;77.80
5808;DHT22;2930;42.678;23.312;2023-03-14T03:42:10;2.10;77.60
5808;DHT22;2930;42.678;23.312;2023-03-14T03:44:36;2.00;77.90
5808;DHT22;2930;42.678;23.312;2023-03-14T03:47:02;2.00;78.00
5808;DHT22;2930;42.678;23.312;2023-03-14T03:49:31;2.00;77.30
5808;DHT22;2930;42.678;23.312;2023-03-14T03:51:58;2.10;76.90
5808;DHT22;2930;42.678;23.312;2023-03-14T03:54:24;2.00;77.60
5808;DHT22;2930;42.678;23.312;2023-03-14T03:56:50;2.00;77.60
5808;DHT22;2930;42.678;23.312;2023-03-14T03:59:17;2.00;77.10
5808;DHT22;2930;42.678;23.312;2023-03-14T04:01:42;2.00;77.20
5808;DHT22;2930;42.678;23.312;2023-03-14T04:04:08;2.00;77.10
5808;DHT22;2930;42.678;23.312;2023-03-14T04:06:34;2.00;77.50
5808;DHT22;2930;42.678;23.312;2023-03-14T04:09:00;1.90;77.80
5808;DHT22;2930;42.678;23.312;2023-03-14T04:11:26;1.80;77.90
5808;DHT22;2930;42.678;23.312;2023-03-14T04:13:51;1.80;78.00
5808;DHT22;2930;42.678;23.312;2023-03-14T04:16:20;1.80;78.20
5808;DHT22;2930;42.678;23.312;2023-03-14T04:18:46;1.70;78.40
5808;DHT22;2930;42.678;23.312;2023-03-14T04:21:12;1.70;78.40
5808;DHT22;2930;42.678;23.312;2023-03-14T04:23:38;1.60;78.70
5808;DHT22;2930;42.678;23.312;2023-03-14T04:26:03;1.60;78.90
5808;DHT22;2930;42.678;23.312;2023-03-14T04:28:29;1.60;78.50
5808;DHT22;2930;42.678;23.312;2023-03-14T04:30:55;1.60;78.80
5808;DHT22;2930;42.678;23.312;2023-03-14T04:33:20;1.50;79.00
5808;DHT22;2930;42.678;23.312;2023-03-14T04:35:47;1.50;79.10
5808;DHT22;2930;42.678;23.312;2023-03-14T04:38:13;1.50;79.30
5808;DHT22;2930;42.678;23.312;2023-03-14T04:40:40;1.50;79.30
5808;DHT22;2930;42.678;23.312;2023-03-14T04:43:06;1.50;79.40
5808;DHT22;2930;42.678;23.312;2023-03-14T04:45:32;1.50;79.50
5808;DHT22;2930;42.678;23.312;2023-03-14T04:47:58;1.50;79.50
5808;DHT22;2930;42.678;23.312;2023-03-14T04:50:23;1.50;79.40
5808;DHT22;2930;42.678;23.312;2023-03-14T04:52:49;1.50;79.40
5808;DHT22;2930;42.678;23.312;2023-03-14T04:55:15;1.50;79.40
5808;DHT22;2930;42.678;23.312;2023-03-14T04:57:40;1.50;79.40
5808;DHT22;2930;42.678;23.312;2023-03-14T05:00:07;1.50;79.40
5808;DHT22;2930;42.678;23.312;2023-03-14T05:02:33;1.50;79.40
5808;DHT22;2930;42.678;23.312;2023-03-14T05:04:59;1.50;79.50
5808;DHT22;2930;42.678;23.312;2023-03-14T05:07:25;1.50;79.60
5808;DHT22;2930;42.678;23.312;2023-03-14T05:09:51;1.50;79.70
5808;DHT22;2930;42.678;23.312;2023-03-14T05:12:19;1.50;79.60
5808;DHT22;2930;42.678;23.312;2023-03-14T05:14:44;1.50;79.70
5808;DHT22;2930;42.678;23.312;2023-03-14T05:17:10;1.60;79.70
5808;DHT22;2930;42.678;23.312;2023-03-14T05:19:37;1.60;79.70
5808;DHT22;2930;42.678;23.312;2023-03-14T05:22:03;1.60;80.10
5808;DHT22;2930;42.678;23.312;2023-03-14T05:24:28;1.70;80.10
5808;DHT22;2930;42.678;23.312;2023-03-14T05:26:54;1.70;80.10
5808;DHT22;2930;42.678;23.312;2023-03-14T05:29:20;1.80;80.00
5808;DHT22;2930;42.678;23.312;2023-03-14T05:31:45;1.80;79.90
5808;DHT22;2930;42.678;23.312;2023-03-14T05:34:11;1.90;79.80
5808;DHT22;2930;42.678;23.312;2023-03-14T05:36:37;1.90;79.50
5808;DHT22;2930;42.678;23.312;2023-03-14T05:39:03;2.00;79.30
5808;DHT22;2930;42.678;23.312;2023-03-14T05:41:29;2.10;79.30
5808;DHT22;2930;42.678;23.312;2023-03-14T05:43:55;2.10;79.00
5808;DHT22;2930;42.678;23.312;2023-03-14T05:46:20;2.20;78.70
5808;DHT22;2930;42.678;23.312;2023-03-14T05:48:46;2.30;78.60
5808;DHT22;2930;42.678;23.312;2023-03-14T05:51:12;2.40;78.50
5808;DHT22;2930;42.678;23.312;2023-03-14T05:53:37;2.40;78.30
5808;DHT22;2930;42.678;23.312;2023-03-14T05:56:03;2.50;77.40
5808;DHT22;2930;42.678;23.312;2023-03-14T05:58:29;2.60;77.70
5808;DHT22;2930;42.678;23.312;2023-03-14T06:00:54;2.70;77.80
5808;DHT22;2930;42.678;23.312;2023-03-14T06:03:20;2.80;77.70
5808;DHT22;2930;42.678;23.312;2023-03-14T06:05:46;2.90;77.50
5808;DHT22;2930;42.678;23.312;2023-03-14T06:08:11;3.00;77.20
5808;DHT22;2930;42.678;23.312;2023-03-14T06:10:37;3.00;77.10
5808;DHT22;2930;42.678;23.312;2023-03-14T06:13:03;3.10;76.30
5808;DHT22;2930;42.678;23.312;2023-03-14T06:15:29;3.10;76.60
5808;DHT22;2930;42.678;23.312;2023-03-14T06:17:55;3.10;76.70
5808;DHT22;2930;42.678;23.312;2023-03-14T06:20:21;3.20;76.50
5808;DHT22;2930;42.678;23.312;2023-03-14T06:22:47;3.20;76.30
5808;DHT22;2930;42.678;23.312;2023-03-14T06:25:12;3.20;76.00
5808;DHT22;2930;42.678;23.312;2023-03-14T06:27:38;3.30;75.80
5808;DHT22;2930;42.678;23.312;2023-03-14T06:30:04;3.30;75.60
5808;DHT22;2930;42.678;23.312;2023-03-14T06:32:30;3.30;75.60
5808;DHT22;2930;42.678;23.312;2023-03-14T06:34:56;3.40;75.70
5808;DHT22;2930;42.678;23.312;2023-03-14T06:37:26;3.50;75.70
5808;DHT22;2930;42.678;23.312;2023-03-14T06:39:53;3.60;75.40
5808;DHT22;2930;42.678;23.312;2023-03-14T06:42:19;3.60;75.10
5808;DHT22;2930;42.678;23.312;2023-03-14T06:44:44;3.70;75.00
5808;DHT22;2930;42.678;23.312;2023-03-14T06:47:10;3.70;75.00
5808;DHT22;2930;42.678;23.312;2023-03-14T06:49:35;3.80;74.50
5808;DHT22;2930;42.678;23.312;2023-03-14T06:52:01;3.80;74.60
5808;DHT22;2930;42.678;23.312;2023-03-14T06:54:27;3.90;74.60
5808;DHT22;2930;42.678;23.312;2023-03-14T06:56:52;4.00;74.50
5808;DHT22;2930;42.678;23.312;2023-03-14T06:59:18;4.10;74.50
5808;DHT22;2930;42.678;23.312;2023-03-14T07:01:44;4.20;73.70
5808;DHT22;2930;42.678;23.312;2023-03-14T07:04:09;4.20;73.50
5808;DHT22;2930;42.678;23.312;2023-03-14T07:06:35;4.40;72.90
5808;DHT22;2930;42.678;23.312;2023-03-14T07:09:01;4.40;72.80
5808;DHT22;2930;42.678;23.312;2023-03-14T07:11:27;4.50;71.90
5808;DHT22;2930;42.678;23.312;2023-03-14T07:13:53;4.60;71.90
5808;DHT22;2930;42.678;23.312;2023-03-14T07:16:18;4.70;71.90
5808;DHT22;2930;42.678;23.312;2023-03-14T07:18:45;4.80;71.80
5808;DHT22;2930;42.678;23.312;2023-03-14T07:21:11;4.90;71.50
5808;DHT22;2930;42.678;23.312;2023-03-14T07:23:37;4.90;71.20
5808;DHT22;2930;42.678;23.312;2023-03-14T07:26:04;5.00;71.20
5808;DHT22;2930;42.678;23.312;2023-03-14T07:28:30;5.10;71.80
5808;DHT22;2930;42.678;23.312;2023-03-14T07:30:55;5.20;72.00
5808;DHT22;2930;42.678;23.312;2023-03-14T07:33:21;5.30;71.80
5808;DHT22;2930;42.678;23.312;2023-03-14T07:35:48;5.40;71.30
5808;DHT22;2930;42.678;23.312;2023-03-14T07:38:14;5.50;70.90
5808;DHT22;2930;42.678;23.312;2023-03-14T07:40:40;5.60;70.60
5808;DHT22;2930;42.678;23.312;2023-03-14T07:43:06;5.70;70.80
5808;DHT22;2930;42.678;23.312;2023-03-14T07:45:32;5.80;70.60
5808;DHT22;2930;42.678;23.312;2023-03-14T07:47:57;5.90;70.30
5808;DHT22;2930;42.678;23.312;2023-03-14T07:50:26;6.00;70.10
5808;DHT22;2930;42.678;23.312;2023-03-14T07:52:53;6.10;69.80
5808;DHT22;2930;42.678;23.312;2023-03-14T07:55:19;6.30;69.60
5808;DHT22;2930;42.678;23.312;2023-03-14T07:57:44;6.40;69.00
5808;DHT22;2930;42.678;23.312;2023-03-14T08:00:11;6.60;68.40
5808;DHT22;2930;42.678;23.312;2023-03-14T08:02:36;6.80;68.00
5808;DHT22;2930;42.678;23.312;2023-03-14T08:05:03;7.10;67.50
5808;DHT22;2930;42.678;23.312;2023-03-14T08:07:29;7.50;66.60
5808;DHT22;2930;42.678;23.312;2023-03-14T08:09:55;8.00;65.80
5808;DHT22;2930;42.678;23.312;2023-03-14T08:12:20;8.80;64.70
5808;DHT22;2930;42.678;23.312;2023-03-14T08:14:46;9.80;62.70
5808;DHT22;2930;42.678;23.312;2023-03-14T08:17:12;10.70;60.70
5808;DHT22;2930;42.678;23.312;2023-03-14T08:19:37;11.70;59.40
5808;DHT22;2930;42.678;23.312;2023-03-14T08:22:03;12.70;57.50
5808;DHT22;2930;42.678;23.312;2023-03-14T08:24:29;13.50;56.20
5808;DHT22;2930;42.678;23.312;2023-03-14T08:26:55;14.50;53.80
5808;DHT22;2930;42.678;23.312;2023-03-14T08:29:21;15.10;53.10
5808;DHT22;2930;42.678;23.312;2023-03-14T08:31:46;15.60;51.70
5808;DHT22;2930;42.678;23.312;2023-03-14T08:34:14;16.10;49.80
5808;DHT22;2930;42.678;23.312;2023-03-14T08:36:40;16.50;51.10
5808;DHT22;2930;42.678;23.312;2023-03-14T08:39:06;17.00;50.60
5808;DHT22;2930;42.678;23.312;2023-03-14T08:41:33;17.40;48.60
5808;DHT22;2930;42.678;23.312;2023-03-14T08:43:58;17.90;49.20
5808;DHT22;2930;42.678;23.312;2023-03-14T08:46:24;18.20;48.10
5808;DHT22;2930;42.678;23.312;2023-03-14T08:48:50;18.50;47.60
5808;DHT22;2930;42.678;23.312;2023-03-14T08:51:15;18.80;47.10
5808;DHT22;2930;42.678;23.312;2023-03-14T08:53:42;19.20;46.60
5808;DHT22;2930;42.678;23.312;2023-03-14T08:56:08;19.80;46.40
5808;DHT22;2930;42.678;23.312;2023-03-14T08:58:36;20.10;45.20
5808;DHT22;2930;42.678;23.312;2023-03-14T09:01:07;20.60;46.00
5808;DHT22;2930;42.678;23.312;2023-03-14T09:03:33;21.00;44.30
5808;DHT22;2930;42.678;23.312;2023-03-14T09:06:03;21.70;44.20
5808;DHT22;2930;42.678;23.312;2023-03-14T09:08:29;22.60;44.90
5808;DHT22;2930;42.678;23.312;2023-03-14T09:10:55;23.40;43.20
5808;DHT22;2930;42.678;23.312;2023-03-14T09:13:21;24.40;43.40
5808;DHT22;2930;42.678;23.312;2023-03-14T09:15:51;25.20;43.20
5808;DHT22;2930;42.678;23.312;2023-03-14T09:18:17;25.80;43.20
5808;DHT22;2930;42.678;23.312;2023-03-14T09:20:42;26.00;40.70
5808;DHT22;2930;42.678;23.312;2023-03-14T09:23:08;26.20;41.20
5808;DHT22;2930;42.678;23.312;2023-03-14T09:25:34;26.00;40.90
5808;DHT22;2930;42.678;23.312;2023-03-14T09:27:59;25.80;41.40
5808;DHT22;2930;42.678;23.312;2023-03-14T09:30:25;26.10;41.20
5808;DHT22;2930;42.678;23.312;2023-03-14T09:32:51;26.00;40.90
5808;DHT22;2930;42.678;23.312;2023-03-14T09:35:16;26.00;41.00
5808;DHT22;2930;42.678;23.312;2023-03-14T09:37:42;25.70;40.60
5808;DHT22;2930;42.678;23.312;2023-03-14T09:40:12;25.40;41.40
5808;DHT22;2930;42.678;23.312;2023-03-14T09:42:39;25.60;41.90
5808;DHT22;2930;42.678;23.312;2023-03-14T09:45:14;26.00;41.80
5808;DHT22;2930;42.678;23.312;2023-03-14T09:47:43;26.60;40.90
5808;DHT22;2930;42.678;23.312;2023-03-14T09:50:15;27.30;41.30
5808;DHT22;2930;42.678;23.312;2023-03-14T09:52:57;27.80;41.70
5808;DHT22;2930;42.678;23.312;2023-03-14T09:55:26;28.50;40.30
5808;DHT22;2930;42.678;23.312;2023-03-14T09:58:00;28.80;40.10
5808;DHT22;2930;42.678;23.312;2023-03-14T10:00:29;29.10;39.70
5808;DHT22;2930;42.678;23.312;2023-03-14T10:03:20;29.20;40.50
5808;DHT22;2930;42.678;23.312;2023-03-14T10:05:46;29.00;35.20
5808;DHT22;2930;42.678;23.312;2023-03-14T10:08:13;28.70;38.30
5808;DHT22;2930;42.678;23.312;2023-03-14T10:10:39;28.20;39.50
5808;DHT22;2930;42.678;23.312;2023-03-14T10:15:48;27.80;38.50
5808;DHT22;2930;42.678;23.312;2023-03-14T10:18:14;27.80;39.10
5808;DHT22;2930;42.678;23.312;2023-03-14T10:20:45;27.80;38.40
5808;DHT22;2930;42.678;23.312;2023-03-14T10:25:40;27.40;39.10
5808;DHT22;2930;42.678;23.312;2023-03-14T10:28:26;27.10;38.90
5808;DHT22;2930;42.678;23.312;2023-03-14T10:30:53;26.80;38.90
5808;DHT22;2930;42.678;23.312;2023-03-14T10:33:24;27.10;39.60
5808;DHT22;2930;42.678;23.312;2023-03-14T10:36:02;27.50;39.00
5808;DHT22;2930;42.678;23.312;2023-03-14T10:38:31;28.00;38.90
5808;DHT22;2930;42.678;23.312;2023-03-14T10:40:57;28.20;39.60
5808;DHT22;2930;42.678;23.312;2023-03-14T10:43:35;28.60;40.40
5808;DHT22;2930;42.678;23.312;2023-03-14T10:46:15;28.80;39.20
5808;DHT22;2930;42.678;23.312;2023-03-14T10:48:42;28.90;38.80
5808;DHT22;2930;42.678;23.312;2023-03-14T10:51:17;28.60;39.40
5808;DHT22;2930;42.678;23.312;2023-03-14T10:56:35;27.80;38.40
5808;DHT22;2930;42.678;23.312;2023-03-14T10:59:03;27.50;38.20
5808;DHT22;2930;42.678;23.312;2023-03-14T11:09:28;28.10;39.50
5808;DHT22;2930;42.678;23.312;2023-03-14T11:11:59;28.40;40.70
5808;DHT22;2930;42.678;23.312;2023-03-14T11:14:38;28.60;40.90
5808;DHT22;2930;42.678;23.312;2023-03-14T11:17:27;28.50;41.10
5808;DHT22;2930;42.678;23.312;2023-03-14T11:20:21;28.70;39.00
5808;DHT22;2930;42.678;23.312;2023-03-14T11:22:55;28.90;38.60
5808;DHT22;2930;42.678;23.312;2023-03-14T11:25:30;29.00;41.10
5808;DHT22;2930;42.678;23.312;2023-03-14T11:28:08;28.90;37.60
5808;DHT22;2930;42.678;23.312;2023-03-14T11:30:35;28.20;39.70
5808;DHT22;2930;42.678;23.312;2023-03-14T11:41:03;28.00;41.80
5808;DHT22;2930;42.678;23.312;2023-03-14T11:43:33;28.50;41.90
5808;DHT22;2930;42.678;23.312;2023-03-14T11:49:08;29.20;37.40
5808;DHT22;2930;42.678;23.312;2023-03-14T11:51:39;29.70;41.00
5808;DHT22;2930;42.678;23.312;2023-03-14T11:54:17;30.30;39.40
5808;DHT22;2930;42.678;23.312;2023-03-14T11:59:23;31.10;38.10
5808;DHT22;2930;42.678;23.312;2023-03-14T12:04:49;31.50;36.40
5808;DHT22;2930;42.678;23.312;2023-03-14T12:10:05;31.50;36.40
5808;DHT22;2930;42.678;23.312;2023-03-14T12:12:31;31.40;37.60
5808;DHT22;2930;42.678;23.312;2023-03-14T12:14:59;31.20;38.60
5808;DHT22;2930;42.678;23.312;2023-03-14T12:17:40;30.30;39.10
5808;DHT22;2930;42.678;23.312;2023-03-14T12:20:26;29.70;37.50
5808;DHT22;2930;42.678;23.312;2023-03-14T12:23:05;29.40;36.10
5808;DHT22;2930;42.678;23.312;2023-03-14T12:25:36;29.20;37.90
5808;DHT22;2930;42.678;23.312;2023-03-14T12:28:21;29.20;38.50
5808;DHT22;2930;42.678;23.312;2023-03-14T12:30:47;29.30;36.70
5808;DHT22;2930;42.678;23.312;2023-03-14T12:35:49;29.30;40.00
5808;DHT22;2930;42.678;23.312;2023-03-14T12:38:29;29.60;39.70
5808;DHT22;2930;42.678;23.312;2023-03-14T12:43:34;29.70;39.00
5808;DHT22;2930;42.678;23.312;2023-03-14T12:49:09;29.40;36.90
5808;DHT22;2930;42.678;23.312;2023-03-14T12:51:38;29.20;36.10
5808;DHT22;2930;42.678;23.312;2023-03-14T12:59:36;29.40;39.50
5808;DHT22;2930;42.678;23.312;2023-03-14T13:10:27;30.60;37.80
5808;DHT22;2930;42.678;23.312;2023-03-14T13:13:20;30.90;37.50
5808;DHT22;2930;42.678;23.312;2023-03-14T13:15:47;31.30;39.30
5808;DHT22;2930;42.678;23.312;2023-03-14T13:18:17;31.60;37.20
5808;DHT22;2930;42.678;23.312;2023-03-14T13:23:34;31.30;38.00
5808;DHT22;2930;42.678;23.312;2023-03-14T13:26:02;31.00;39.20
5808;DHT22;2930;42.678;23.312;2023-03-14T13:28:29;30.80;37.40
5808;DHT22;2930;42.678;23.312;2023-03-14T13:31:01;30.60;38.80
5808;DHT22;2930;42.678;23.312;2023-03-14T13:33:27;30.50;37.20
5808;DHT22;2930;42.678;23.312;2023-03-14T13:35:58;30.10;38.10
5808;DHT22;2930;42.678;23.312;2023-03-14T13:38:26;29.90;36.90
5808;DHT22;2930;42.678;23.312;2023-03-14T13:40:55;29.60;37.40
5808;DHT22;2930;42.678;23.312;2023-03-14T13:43:35;29.40;37.70
5808;DHT22;2930;42.678;23.312;2023-03-14T13:48:32;29.00;36.40
5808;DHT22;2930;42.678;23.312;2023-03-14T13:51:03;28.70;39.20
5808;DHT22;2930;42.678;23.312;2023-03-14T13:53:30;28.60;40.00
5808;DHT22;2930;42.678;23.312;2023-03-14T13:55:56;28.70;37.60
5808;DHT22;2930;42.678;23.312;2023-03-14T13:58:28;28.50;38.70
5808;DHT22;2930;42.678;23.312;2023-03-14T14:03:25;27.30;35.80
5808;DHT22;2930;42.678;23.312;2023-03-14T14:05:51;26.60;37.90
5808;DHT22;2930;42.678;23.312;2023-03-14T14:08:16;26.00;39.20
5808;DHT22;2930;42.678;23.312;2023-03-14T14:10:42;25.70;39.70
5808;DHT22;2930;42.678;23.312;2023-03-14T14:13:11;25.60;40.00
5808;DHT22;2930;42.678;23.312;2023-03-14T14:15:44;25.60;38.70
5808;DHT22;2930;42.678;23.312;2023-03-14T14:18:20;25.50;40.20
5808;DHT22;2930;42.678;23.312;2023-03-14T14:20:49;25.40;39.50
5808;DHT22;2930;42.678;23.312;2023-03-14T14:23:27;25.40;38.60
5808;DHT22;2930;42.678;23.312;2023-03-14T14:25:56;25.30;39.40
5808;DHT22;2930;42.678;23.312;2023-03-14T14:28:36;25.20;38.80
5808;DHT22;2930;42.678;23.312;2023-03-14T14:31:19;25.20;39.50
5808;DHT22;2930;42.678;23.312;2023-03-14T14:33:56;25.20;39.40
5808;DHT22;2930;42.678;23.312;2023-03-14T14:36:41;25.30;40.40
5808;DHT22;2930;42.678;23.312;2023-03-14T14:39:20;25.40;39.10
5808;DHT22;2930;42.678;23.312;2023-03-14T14:41:49;25.20;38.70
5808;DHT22;2930;42.678;23.312;2023-03-14T14:44:18;25.00;40.50
5808;DHT22;2930;42.678;23.312;2023-03-14T14:46:46;25.00;40.40
5808;DHT22;2930;42.678;23.312;2023-03-14T14:49:18;25.00;38.30
5808;DHT22;2930;42.678;23.312;2023-03-14T14:51:50;24.40;40.30
5808;DHT22;2930;42.678;23.312;2023-03-14T14:54:18;24.00;40.70
5808;DHT22;2930;42.678;23.312;2023-03-14T14:56:52;23.80;40.30
5808;DHT22;2930;42.678;23.312;2023-03-14T14:59:26;23.30;39.80
5808;DHT22;2930;42.678;23.312;2023-03-14T15:02:00;22.90;39.70
5808;DHT22;2930;42.678;23.312;2023-03-14T15:04:30;22.40;40.40
5808;DHT22;2930;42.678;23.312;2023-03-14T15:06:56;21.80;41.30
5808;DHT22;2930;42.678;23.312;2023-03-14T15:09:22;21.60;42.50
5808;DHT22;2930;42.678;23.312;2023-03-14T15:11:48;21.50;42.40
5808;DHT22;2930;42.678;23.312;2023-03-14T15:14:14;21.60;42.40
5808;DHT22;2930;42.678;23.312;2023-03-14T15:16:40;21.60;41.80
5808;DHT22;2930;42.678;23.312;2023-03-14T15:19:20;21.50;41.30
5808;DHT22;2930;42.678;23.312;2023-03-14T15:21:47;21.20;41.60
5808;DHT22;2930;42.678;23.312;2023-03-14T15:24:12;21.00;42.30
5808;DHT22;2930;42.678;23.312;2023-03-14T15:26:38;20.80;42.50
5808;DHT22;2930;42.678;23.312;2023-03-14T15:29:04;20.70;42.50
5808;DHT22;2930;42.678;23.312;2023-03-14T15:31:34;20.50;42.60
5808;DHT22;2930;42.678;23.312;2023-03-14T15:33:59;20.30;42.80
5808;DHT22;2930;42.678;23.312;2023-03-14T15:36:30;20.10;42.60
5808;DHT22;2930;42.678;23.312;2023-03-14T15:38:57;19.90;42.50
5808;DHT22;2930;42.678;23.312;2023-03-14T15:41:24;19.60;42.30
5808;DHT22;2930;42.678;23.312;2023-03-14T15:43:51;19.20;42.30
5808;DHT22;2930;42.678;23.312;2023-03-14T15:46:17;18.90;42.50
5808;DHT22;2930;42.678;23.312;2023-03-14T15:48:46;18.60;42.90
5808;DHT22;2930;42.678;23.312;2023-03-14T15:51:12;18.30;43.30
5808;DHT22;2930;42.678;23.312;2023-03-14T15:53:38;18.10;43.50
5808;DHT22;2930;42.678;23.312;2023-03-14T15:56:06;17.80;43.80
5808;DHT22;2930;42.678;23.312;2023-03-14T15:58:32;17.50;44.60
5808;DHT22;2930;42.678;23.312;2023-03-14T16:01:01;17.30;44.70
5808;DHT22;2930;42.678;23.312;2023-03-14T16:03:28;17.10;45.20
5808;DHT22;2930;42.678;23.312;2023-03-14T16:05:54;17.00;45.60
5808;DHT22;2930;42.678;23.312;2023-03-14T16:08:21;16.90;45.60
5808;DHT22;2930;42.678;23.312;2023-03-14T16:10:47;16.70;45.70
5808;DHT22;2930;42.678;23.312;2023-03-14T16:13:13;16.40;46.10
5808;DHT22;2930;42.678;23.312;2023-03-14T16:15:39;16.20;46.00
5808;DHT22;2930;42.678;23.312;2023-03-14T16:18:05;16.00;47.00
5808;DHT22;2930;42.678;23.312;2023-03-14T16:20:30;15.80;47.20
5808;DHT22;2930;42.678;23.312;2023-03-14T16:22:56;15.60;47.50
5808;DHT22;2930;42.678;23.312;2023-03-14T16:25:22;15.50;47.70
5808;DHT22;2930;42.678;23.312;2023-03-14T16:27:47;15.30;48.10
5808;DHT22;2930;42.678;23.312;2023-03-14T16:30:13;15.10;48.30
5808;DHT22;2930;42.678;23.312;2023-03-14T16:32:39;14.90;48.50
5808;DHT22;2930;42.678;23.312;2023-03-14T16:35:05;14.80;48.60
5808;DHT22;2930;42.678;23.312;2023-03-14T16:37:31;14.70;48.90
5808;DHT22;2930;42.678;23.312;2023-03-14T16:39:57;14.50;49.10
5808;DHT22;2930;42.678;23.312;2023-03-14T16:42:23;14.40;49.50
5808;DHT22;2930;42.678;23.312;2023-03-14T16:44:49;14.30;49.40
5808;DHT22;2930;42.678;23.312;2023-03-14T16:47:14;14.10;49.80
5808;DHT22;2930;42.678;23.312;2023-03-14T16:49:40;13.90;49.80
5808;DHT22;2930;42.678;23.312;2023-03-14T16:52:06;13.80;50.20
5808;DHT22;2930;42.678;23.312;2023-03-14T16:54:33;13.70;49.90
5808;DHT22;2930;42.678;23.312;2023-03-14T16:56:59;13.60;50.00
5808;DHT22;2930;42.678;23.312;2023-03-14T16:59:24;13.40;49.90
5808;DHT22;2930;42.678;23.312;2023-03-14T17:01:55;13.30;50.10
5808;DHT22;2930;42.678;23.312;2023-03-14T17:04:21;13.20;49.80
5808;DHT22;2930;42.678;23.312;2023-03-14T17:06:48;13.10;49.90
5808;DHT22;2930;42.678;23.312;2023-03-14T17:09:13;13.10;50.30
5808;DHT22;2930;42.678;23.312;2023-03-14T17:11:39;13.00;50.40
5808;DHT22;2930;42.678;23.312;2023-03-14T17:14:05;12.90;50.90
5808;DHT22;2930;42.678;23.312;2023-03-14T17:16:31;12.80;50.90